createdAt,value
2019-06-01T00:00:12.055Z,75.80
2019-06-01T00:02:40.583Z,76.60
2019-06-01T00:05:10.053Z,76.40
2019-06-01T00:07:39.193Z,75.80
2019-06-01T00:10:08.926Z,75.60
2019-06-01T00:12:39.217Z,76.20
2019-06-01T00:15:08.990Z,76.10
2019-06-01T00:17:38.237Z,75.70
2019-06-01T00:20:07.521Z,75.60
2019-06-01T00:22:36.654Z,75.80
2019-06-01T00:25:06.479Z,75.80
2019-06-01T00:27:35.607Z,75.60
2019-06-01T00:30:05.247Z,75.90
2019-06-01T00:32:34.333Z,75.60
2019-06-01T00:35:03.501Z,75.70
2019-06-01T00:37:32.834Z,75.70
2019-06-01T00:40:01.934Z,75.90
2019-06-01T00:42:31.110Z,75.70
2019-06-01T00:45:00.260Z,75.90
2019-06-01T00:47:29.307Z,76.10
2019-06-01T00:49:58.322Z,75.70
2019-06-01T00:52:27.430Z,75.90
2019-06-01T00:54:56.588Z,75.70
2019-06-01T00:57:25.796Z,76.10
2019-06-01T00:59:55.139Z,76.20
2019-06-01T01:02:24.352Z,76.40
2019-06-01T01:05:02.544Z,76.40
2019-06-01T01:07:31.675Z,76.80
2019-06-01T01:10:00.776Z,76.50
2019-06-01T01:12:29.929Z,76.30
2019-06-01T01:14:59.040Z,76.20
2019-06-01T01:17:28.152Z,76.10
2019-06-01T01:19:57.182Z,76.40
2019-06-01T01:22:26.279Z,76.00
2019-06-01T01:24:56.506Z,76.00
2019-06-01T01:27:25.694Z,76.00
2019-06-01T01:29:55.029Z,76.30
2019-06-01T01:32:24.197Z,76.00
2019-06-01T01:34:53.763Z,76.30
2019-06-01T01:37:22.912Z,76.50
2019-06-01T01:39:52.235Z,76.50
2019-06-01T01:42:21.442Z,76.10
2019-06-01T01:44:50.578Z,76.30
2019-06-01T01:47:19.711Z,76.20
2019-06-01T01:49:49.934Z,76.00
2019-06-01T01:52:19.103Z,76.20
2019-06-01T01:54:48.284Z,76.10
2019-06-01T01:57:17.402Z,76.20
2019-06-01T01:59:46.525Z,76.20
2019-06-01T02:02:15.621Z,76.00
2019-06-01T02:04:44.767Z,75.90
2019-06-01T02:07:13.863Z,76.20
2019-06-01T02:09:42.977Z,76.00
2019-06-01T02:12:12.113Z,76.00
2019-06-01T02:14:42.203Z,76.00
2019-06-01T02:17:11.482Z,76.10
2019-06-01T02:19:40.597Z,76.30
2019-06-01T02:22:09.711Z,76.10
2019-06-01T02:24:38.824Z,76.50
2019-06-01T02:27:07.922Z,76.40
2019-06-01T02:29:37.038Z,76.60
2019-06-01T02:32:06.692Z,76.30
2019-06-01T02:34:36.568Z,76.30
2019-06-01T02:37:05.663Z,76.50
2019-06-01T02:39:34.773Z,77.20
2019-06-01T02:42:05.455Z,76.70
2019-06-01T02:44:34.798Z,76.50
2019-06-01T02:47:04.541Z,76.20
2019-06-01T02:49:34.813Z,76.40
2019-06-01T02:52:04.062Z,76.50
2019-06-01T02:54:33.186Z,76.30
2019-06-01T02:57:02.261Z,76.20
2019-06-01T02:59:31.396Z,76.10
2019-06-01T03:02:07.358Z,76.30
2019-06-01T03:04:32.303Z,76.30
2019-06-01T03:07:03.754Z,76.30
2019-06-01T03:09:35.457Z,76.00
2019-06-01T03:12:06.199Z,76.20
2019-06-01T03:14:37.027Z,76.30
2019-06-01T03:17:07.934Z,76.40
2019-06-01T03:19:40.171Z,76.30
2019-06-01T03:22:12.514Z,76.30
2019-06-01T03:24:43.632Z,76.00
2019-06-01T03:27:15.741Z,76.20
2019-06-01T03:29:50.060Z,76.20
2019-06-01T03:32:35.150Z,76.30
2019-06-01T03:34:50.236Z,76.40
2019-06-01T03:37:19.421Z,76.50
2019-06-01T03:39:49.505Z,76.50
2019-06-01T03:42:18.893Z,76.20
2019-06-01T03:44:47.987Z,76.50
2019-06-01T03:47:16.979Z,76.50
2019-06-01T03:49:46.173Z,76.80
2019-06-01T03:52:15.280Z,77.00
2019-06-01T03:54:44.378Z,76.70
2019-06-01T03:57:13.583Z,76.80
2019-06-01T03:59:42.724Z,77.10
2019-06-01T04:02:11.906Z,77.00
2019-06-01T04:04:41.047Z,77.20
2019-06-01T04:07:10.729Z,77.50
2019-06-01T04:09:39.980Z,78.20
2019-06-01T04:12:09.756Z,77.50
2019-06-01T04:14:39.054Z,77.70
2019-06-01T04:17:08.235Z,77.70
2019-06-01T04:19:37.440Z,78.00
2019-06-01T04:22:10.138Z,78.20
2019-06-01T04:24:39.379Z,78.40
2019-06-01T04:27:08.527Z,78.60
2019-06-01T04:29:37.653Z,78.80
2019-06-01T04:32:06.748Z,79.20
2019-06-01T04:34:35.928Z,79.30
2019-06-01T04:37:05.240Z,79.50
2019-06-01T04:39:34.508Z,79.40
2019-06-01T04:42:03.684Z,79.60
2019-06-01T04:44:32.818Z,80.60
2019-06-01T04:47:04.287Z,79.90
2019-06-01T04:49:33.545Z,80.10
2019-06-01T04:52:02.731Z,80.30
2019-06-01T04:54:31.867Z,80.30
2019-06-01T04:57:00.897Z,80.50
2019-06-01T04:59:29.983Z,80.60
2019-06-01T05:01:59.112Z,80.90
2019-06-01T05:04:28.178Z,81.20
2019-06-01T05:06:57.346Z,81.40
2019-06-01T05:09:26.476Z,81.80
2019-06-01T05:11:55.582Z,82.20
2019-06-01T05:14:24.722Z,82.40
2019-06-01T05:16:53.927Z,82.60
2019-06-01T05:19:22.955Z,82.80
2019-06-01T05:21:52.223Z,82.80
2019-06-01T05:24:21.336Z,83.40
2019-06-01T05:26:50.453Z,83.40
2019-06-01T05:29:19.540Z,84.50
2019-06-01T05:31:48.654Z,84.00
2019-06-01T05:34:18.337Z,84.70
2019-06-01T05:36:47.782Z,85.00
2019-06-01T05:39:17.076Z,85.30
2019-06-01T05:41:46.251Z,85.70
2019-06-01T05:44:15.381Z,86.00
2019-06-01T05:46:44.483Z,86.90
2019-06-01T05:49:14.686Z,87.10
2019-06-01T05:51:43.986Z,88.00
2019-06-01T05:54:13.163Z,88.30
2019-06-01T05:56:43.373Z,88.60
2019-06-01T05:59:12.502Z,88.80
2019-06-01T06:01:41.725Z,89.20
2019-06-01T06:04:11.364Z,89.60
2019-06-01T06:06:40.565Z,89.70
2019-06-01T06:09:11.398Z,89.60
2019-06-01T06:11:40.620Z,89.90
2019-06-01T06:14:09.764Z,89.90
2019-06-01T06:16:38.884Z,90.00
2019-06-01T06:19:08.016Z,90.30
2019-06-01T06:21:38.599Z,90.40
2019-06-01T06:24:07.718Z,90.50
2019-06-01T06:26:36.808Z,90.80
2019-06-01T06:29:05.921Z,91.70
2019-06-01T06:31:35.079Z,92.20
2019-06-01T06:34:04.178Z,92.50
2019-06-01T06:36:33.373Z,93.00
2019-06-01T06:39:04.698Z,92.80
2019-06-01T06:41:33.336Z,92.90
2019-06-01T06:44:02.463Z,92.90
2019-06-01T06:46:31.545Z,92.90
2019-06-01T06:49:00.740Z,93.20
2019-06-01T06:51:29.814Z,92.80
2019-06-01T06:53:58.994Z,92.80
2019-06-01T06:56:28.724Z,92.60
2019-06-01T06:58:59.343Z,92.50
2019-06-01T07:01:28.453Z,92.40
2019-06-01T07:04:11.756Z,92.50
2019-06-01T07:06:28.460Z,92.50
2019-06-01T07:08:57.626Z,92.20
2019-06-01T07:11:27.439Z,92.20
2019-06-01T07:13:56.720Z,91.90
2019-06-01T07:16:25.837Z,91.80
2019-06-01T07:18:54.901Z,91.60
2019-06-01T07:21:24.025Z,91.70
2019-06-01T07:23:53.131Z,91.70
2019-06-01T07:26:22.281Z,91.60
2019-06-01T07:28:51.428Z,91.50
2019-06-01T07:31:20.565Z,91.20
2019-06-01T07:33:49.675Z,90.90
2019-06-01T07:36:18.799Z,90.70
2019-06-01T07:38:47.860Z,90.50
2019-06-01T07:41:16.989Z,90.30
2019-06-01T07:43:46.300Z,90.80
2019-06-01T07:46:15.409Z,90.30
2019-06-01T07:48:44.515Z,90.50
2019-06-01T07:51:13.607Z,90.20
2019-06-01T07:53:42.712Z,89.70
2019-06-01T07:56:11.808Z,89.60
2019-06-01T07:58:40.927Z,89.80
2019-06-01T08:01:10.044Z,89.40
2019-06-01T08:03:39.182Z,88.80
2019-06-01T08:06:08.253Z,88.80
2019-06-01T08:08:37.392Z,88.60
2019-06-01T08:11:06.549Z,89.00
2019-06-01T08:13:35.984Z,88.20
2019-06-01T08:16:05.247Z,88.00
2019-06-01T08:18:34.343Z,87.90
2019-06-01T08:21:03.429Z,87.80
2019-06-01T08:23:32.636Z,87.40
2019-06-01T08:26:01.844Z,87.00
2019-06-01T08:28:31.003Z,87.00
2019-06-01T08:31:00.258Z,86.90
2019-06-01T08:33:32.392Z,86.70
2019-06-01T08:36:00.212Z,86.40
2019-06-01T08:38:29.632Z,86.10
2019-06-01T08:40:58.787Z,85.80
2019-06-01T08:43:29.755Z,85.90
2019-06-01T08:45:59.041Z,85.90
2019-06-01T08:48:28.158Z,85.50
2019-06-01T08:50:57.305Z,86.00
2019-06-01T08:53:26.407Z,85.00
2019-06-01T08:55:55.760Z,84.90
2019-06-01T08:58:26.128Z,84.60
2019-06-01T09:00:55.424Z,84.50
2019-06-01T09:03:25.795Z,84.50
2019-06-01T09:05:55.011Z,84.20
2019-06-01T09:08:25.555Z,84.20
2019-06-01T09:10:54.960Z,83.90
2019-06-01T09:13:25.112Z,83.70
2019-06-01T09:15:54.436Z,84.10
2019-06-01T09:18:23.608Z,83.30
2019-06-01T09:20:52.750Z,83.20
2019-06-01T09:23:21.925Z,82.80
2019-06-01T09:25:51.047Z,82.70
2019-06-01T09:28:20.119Z,82.20
2019-06-01T09:30:49.261Z,81.70
2019-06-01T09:33:18.353Z,81.60
2019-06-01T09:35:55.566Z,81.60
2019-06-01T09:38:18.396Z,81.80
2019-06-01T09:40:47.530Z,81.20
2019-06-01T09:43:16.740Z,80.90
2019-06-01T09:45:46.054Z,81.30
2019-06-01T09:48:15.157Z,80.70
2019-06-01T09:50:44.318Z,80.20
2019-06-01T09:53:13.430Z,80.00
2019-06-01T09:55:42.614Z,79.90
2019-06-01T09:58:11.711Z,79.60
2019-06-01T10:00:43.580Z,79.60
2019-06-01T10:03:11.726Z,79.50
2019-06-01T10:05:40.827Z,79.30
2019-06-01T10:08:09.940Z,79.10
2019-06-01T10:10:39.109Z,78.80
2019-06-01T10:13:08.277Z,78.70
2019-06-01T10:15:38.509Z,78.50
2019-06-01T10:18:07.818Z,78.40
2019-06-01T10:20:37.038Z,78.20
2019-06-01T10:23:06.156Z,78.00
2019-06-01T10:25:36.376Z,77.80
2019-06-01T10:28:05.670Z,77.80
2019-06-01T10:30:35.788Z,77.30
2019-06-01T10:33:05.140Z,77.20
2019-06-01T10:35:34.895Z,76.90
2019-06-01T10:38:04.255Z,76.70
2019-06-01T10:40:33.480Z,77.00
2019-06-01T10:43:02.735Z,76.40
2019-06-01T10:45:31.909Z,76.30
2019-06-01T10:48:01.078Z,76.20
2019-06-01T10:50:30.184Z,75.90
2019-06-01T10:52:59.283Z,76.00
2019-06-01T10:55:28.418Z,76.10
2019-06-01T10:57:57.560Z,75.90
2019-06-01T11:00:37.525Z,75.60
2019-06-01T11:02:57.724Z,75.40
2019-06-01T11:05:27.022Z,75.00
2019-06-01T11:07:56.205Z,74.90
2019-06-01T11:10:25.311Z,74.70
2019-06-01T11:12:54.424Z,74.50
2019-06-01T11:15:23.521Z,74.30
2019-06-01T11:17:52.691Z,74.30
2019-06-01T11:20:21.820Z,74.10
2019-06-01T11:22:50.978Z,74.00
2019-06-01T11:25:20.094Z,73.90
2019-06-01T11:27:49.208Z,73.60
2019-06-01T11:30:18.503Z,74.20
2019-06-01T11:32:47.801Z,73.10
2019-06-01T11:35:16.888Z,72.90
2019-06-01T11:37:45.985Z,72.80
2019-06-01T11:40:15.107Z,72.80
2019-06-01T11:42:45.144Z,72.70
2019-06-01T11:45:15.050Z,72.40
2019-06-01T11:47:45.120Z,72.20
2019-06-01T11:50:14.847Z,72.20
2019-06-01T11:52:45.320Z,72.00
2019-06-01T11:55:14.755Z,71.60
2019-06-01T11:57:43.914Z,71.50
2019-06-01T12:00:13.611Z,71.40
2019-06-01T12:02:43.829Z,70.50
2019-06-01T12:05:13.501Z,70.20
2019-06-01T12:07:43.814Z,70.40
2019-06-01T12:10:13.714Z,70.00
2019-06-01T12:12:44.199Z,69.80
2019-06-01T12:15:13.757Z,69.70
2019-06-01T12:17:42.955Z,69.70
2019-06-01T12:20:12.152Z,69.60
2019-06-01T12:22:41.290Z,69.60
2019-06-01T12:25:10.805Z,69.50
2019-06-01T12:27:39.925Z,69.20
2019-06-01T12:30:09.700Z,69.30
2019-06-01T12:32:39.859Z,69.20
2019-06-01T12:35:09.119Z,69.00
2019-06-01T12:37:56.014Z,68.80
2019-06-01T12:40:10.158Z,68.60
2019-06-01T12:42:39.836Z,68.40
2019-06-01T12:45:15.689Z,68.30
2019-06-01T12:47:44.775Z,68.20
2019-06-01T12:50:14.074Z,68.00
2019-06-01T12:52:44.388Z,67.90
2019-06-01T12:55:13.814Z,67.80
2019-06-01T12:57:42.985Z,67.40
2019-06-01T13:00:14.478Z,67.10
2019-06-01T13:02:46.324Z,66.50
2019-06-01T13:05:15.682Z,66.20
2019-06-01T13:07:56.338Z,66.20
2019-06-01T13:10:15.671Z,66.00
2019-06-01T13:12:45.155Z,65.70
2019-06-01T13:15:15.055Z,64.60
2019-06-01T13:17:45.265Z,64.70
2019-06-01T13:20:14.637Z,64.50
2019-06-01T13:22:43.845Z,64.30
2019-06-01T13:25:13.031Z,64.00
2019-06-01T13:27:42.593Z,62.90
2019-06-01T13:30:12.617Z,63.00
2019-06-01T13:32:42.402Z,63.40
2019-06-01T13:35:11.976Z,63.50
2019-06-01T13:37:42.354Z,63.30
2019-06-01T13:40:11.784Z,63.00
2019-06-01T13:42:40.924Z,63.00
2019-06-01T13:45:10.340Z,63.00
2019-06-01T13:47:39.449Z,63.00
2019-06-01T13:50:10.559Z,62.40
2019-06-01T13:52:39.731Z,62.20
2019-06-01T13:55:09.162Z,62.20
2019-06-01T13:57:39.616Z,62.20
2019-06-01T14:00:09.830Z,62.00
2019-06-01T14:02:38.970Z,62.70
2019-06-01T14:05:08.407Z,61.20
2019-06-01T14:07:37.616Z,61.60
2019-06-01T14:10:08.098Z,61.40
2019-06-01T14:12:37.316Z,61.50
2019-06-01T14:15:07.011Z,61.20
2019-06-01T14:17:36.368Z,61.10
2019-06-01T14:20:05.798Z,61.00
2019-06-01T14:22:34.970Z,61.80
2019-06-01T14:25:12.760Z,60.80
2019-06-01T14:27:35.404Z,61.40
2019-06-01T14:30:05.334Z,60.60
2019-06-01T14:32:34.541Z,60.60
2019-06-01T14:35:03.789Z,60.60
2019-06-01T14:37:32.912Z,59.80
2019-06-01T14:40:02.036Z,59.70
2019-06-01T14:42:31.229Z,59.70
2019-06-01T14:45:00.367Z,59.50
2019-06-01T14:47:29.446Z,59.80
2019-06-01T14:49:58.575Z,59.70
2019-06-01T14:52:27.687Z,59.60
2019-06-01T14:54:57.926Z,59.60
2019-06-01T14:57:27.198Z,59.80
2019-06-01T14:59:56.323Z,59.50
2019-06-01T15:02:25.419Z,59.40
2019-06-01T15:04:54.570Z,59.20
2019-06-01T15:07:23.685Z,59.20
2019-06-01T15:09:52.828Z,59.10
2019-06-01T15:12:21.939Z,58.50
2019-06-01T15:14:51.033Z,58.40
2019-06-01T15:17:20.146Z,58.60
2019-06-01T15:19:49.997Z,58.20
2019-06-01T15:22:19.240Z,58.20
2019-06-01T15:24:48.373Z,58.10
2019-06-01T15:27:17.475Z,57.80
2019-06-01T15:29:46.601Z,58.10
2019-06-01T15:32:15.783Z,58.20
2019-06-01T15:34:44.827Z,58.20
2019-06-01T15:37:13.966Z,58.00
2019-06-01T15:39:43.083Z,57.30
2019-06-01T15:42:12.282Z,57.90
2019-06-01T15:44:41.474Z,58.40
2019-06-01T15:47:10.625Z,57.90
2019-06-01T15:49:39.745Z,57.40
2019-06-01T15:52:08.884Z,57.60
2019-06-01T15:54:38.007Z,57.80
2019-06-01T15:57:07.134Z,57.70
2019-06-01T15:59:36.239Z,57.60
2019-06-01T16:02:05.541Z,57.50
2019-06-01T16:04:34.700Z,57.00
2019-06-01T16:07:03.795Z,57.30
2019-06-01T16:09:42.491Z,56.90
2019-06-01T16:12:03.844Z,57.20
2019-06-01T16:14:32.982Z,57.30
2019-06-01T16:17:02.902Z,57.20
2019-06-01T16:19:33.039Z,56.90
2019-06-01T16:22:02.629Z,56.90
2019-06-01T16:24:31.914Z,57.20
2019-06-01T16:27:01.002Z,57.20
2019-06-01T16:29:30.163Z,57.40
2019-06-01T16:32:00.656Z,57.20
2019-06-01T16:34:29.972Z,56.80
2019-06-01T16:36:59.093Z,56.80
2019-06-01T16:39:28.214Z,56.40
2019-06-01T16:41:57.708Z,56.60
2019-06-01T16:44:26.903Z,56.70
2019-06-01T16:46:56.018Z,57.00
2019-06-01T16:49:27.323Z,57.20
2019-06-01T16:51:59.050Z,57.10
2019-06-01T16:54:28.451Z,57.20
2019-06-01T16:56:58.042Z,57.10
2019-06-01T16:59:27.333Z,57.30
2019-06-01T17:01:56.553Z,57.30
2019-06-01T17:04:25.860Z,56.60
2019-06-01T17:06:55.030Z,57.00
2019-06-01T17:09:24.130Z,56.80
2019-06-01T17:11:53.239Z,57.20
2019-06-01T17:14:22.388Z,57.10
2019-06-01T17:16:51.482Z,57.20
2019-06-01T17:19:20.618Z,57.10
2019-06-01T17:21:49.736Z,57.20
2019-06-01T17:24:18.850Z,56.80
2019-06-01T17:26:47.951Z,56.40
2019-06-01T17:29:17.156Z,56.40
2019-06-01T17:31:54.379Z,56.70
2019-06-01T17:34:17.132Z,57.10
2019-06-01T17:36:46.231Z,56.50
2019-06-01T17:39:16.494Z,56.90
2019-06-01T17:41:45.620Z,56.70
2019-06-01T17:44:14.748Z,57.10
2019-06-01T17:46:53.476Z,56.70
2019-06-01T17:49:14.754Z,56.70
2019-06-01T17:51:43.868Z,56.80
2019-06-01T17:54:12.977Z,56.90
2019-06-01T17:56:42.099Z,57.00
2019-06-01T17:59:11.566Z,56.80
2019-06-01T18:01:42.605Z,57.20
2019-06-01T18:04:12.126Z,57.10
2019-06-01T18:06:41.365Z,57.00
2019-06-01T18:09:10.469Z,56.90
2019-06-01T18:11:39.595Z,57.00
2019-06-01T18:14:10.264Z,57.10
2019-06-01T18:16:39.840Z,57.10
2019-06-01T18:19:08.915Z,57.40
2019-06-01T18:21:38.048Z,57.40
2019-06-01T18:24:08.428Z,57.60
2019-06-01T18:26:38.011Z,57.50
2019-06-01T18:29:07.133Z,57.90
2019-06-01T18:31:36.309Z,58.00
2019-06-01T18:34:05.636Z,58.10
2019-06-01T18:36:34.838Z,58.90
2019-06-01T18:39:05.957Z,58.40
2019-06-01T18:41:35.070Z,58.20
2019-06-01T18:44:05.376Z,58.10
2019-06-01T18:46:34.895Z,58.10
2019-06-01T18:49:04.009Z,58.30
2019-06-01T18:51:33.151Z,58.30
2019-06-01T18:54:02.253Z,58.20
2019-06-01T18:56:31.385Z,57.90
2019-06-01T18:59:00.564Z,58.00
2019-06-01T19:01:29.681Z,57.80
2019-06-01T19:03:58.809Z,57.30
2019-06-01T19:06:27.965Z,56.50
2019-06-01T19:08:57.061Z,55.90
2019-06-01T19:11:35.430Z,55.70
2019-06-01T19:13:57.019Z,55.40
2019-06-01T19:16:26.143Z,55.30
2019-06-01T19:18:55.255Z,55.30
2019-06-01T19:21:24.452Z,55.20
2019-06-01T19:23:53.561Z,55.20
2019-06-01T19:26:22.693Z,55.20
2019-06-01T19:28:51.813Z,55.20
2019-06-01T19:31:20.924Z,55.40
2019-06-01T19:33:50.060Z,55.50
2019-06-01T19:36:19.572Z,55.40
2019-06-01T19:38:49.194Z,55.30
2019-06-01T19:41:18.363Z,55.40
2019-06-01T19:43:47.490Z,55.60
2019-06-01T19:46:16.646Z,55.70
2019-06-01T19:48:45.952Z,55.70
2019-06-01T19:51:15.129Z,55.70
2019-06-01T19:53:44.268Z,55.90
2019-06-01T19:56:13.415Z,55.90
2019-06-01T19:58:42.495Z,56.00
2019-06-01T20:01:12.278Z,56.10
2019-06-01T20:03:41.599Z,56.40
2019-06-01T20:06:10.784Z,56.50
2019-06-01T20:08:39.907Z,56.60
2019-06-01T20:11:09.037Z,56.60
2019-06-01T20:13:38.107Z,56.70
2019-06-01T20:16:07.176Z,56.80
2019-06-01T20:18:36.330Z,56.90
2019-06-01T20:21:05.532Z,57.20
2019-06-01T20:23:34.651Z,57.40
2019-06-01T20:26:03.874Z,57.40
2019-06-01T20:28:32.973Z,57.60
2019-06-01T20:31:02.096Z,57.70
2019-06-01T20:33:31.291Z,57.90
2019-06-01T20:36:00.450Z,58.00
2019-06-01T20:38:29.623Z,57.90
2019-06-01T20:40:58.872Z,58.10
2019-06-01T20:43:28.003Z,57.80
2019-06-01T20:45:57.239Z,58.00
2019-06-01T20:48:26.416Z,58.20
2019-06-01T20:50:55.551Z,58.40
2019-06-01T20:53:24.771Z,58.40
2019-06-01T20:55:53.919Z,58.60
2019-06-01T20:58:23.834Z,58.70
2019-06-01T21:00:54.056Z,59.00
2019-06-01T21:03:24.327Z,59.00
2019-06-01T21:05:53.722Z,59.10
2019-06-01T21:08:24.040Z,58.90
2019-06-01T21:10:53.339Z,59.00
2019-06-01T21:13:22.443Z,59.10
2019-06-01T21:15:51.609Z,59.00
2019-06-01T21:18:20.997Z,59.00
2019-06-01T21:20:50.627Z,58.90
2019-06-01T21:23:20.728Z,58.90
2019-06-01T21:25:49.957Z,59.20
2019-06-01T21:28:20.504Z,59.30
2019-06-01T21:30:49.900Z,59.10
2019-06-01T21:33:19.807Z,59.10
2019-06-01T21:35:49.079Z,59.10
2019-06-01T21:38:19.266Z,59.40
2019-06-01T21:40:48.494Z,59.40
2019-06-01T21:43:27.437Z,59.50
2019-06-01T21:45:48.515Z,59.50
2019-06-01T21:48:17.628Z,59.50
2019-06-01T21:50:46.690Z,59.60
2019-06-01T21:53:15.996Z,59.50
2019-06-01T21:55:45.159Z,59.70
2019-06-01T21:58:14.256Z,59.60
2019-06-01T22:00:44.172Z,59.60
2019-06-01T22:03:13.281Z,59.80
2019-06-01T22:05:42.532Z,60.00
2019-06-01T22:08:11.721Z,60.00
2019-06-01T22:10:40.844Z,60.10
2019-06-01T22:13:18.529Z,60.00
2019-06-01T22:15:40.865Z,60.00
2019-06-01T22:18:09.996Z,60.10
2019-06-01T22:20:39.204Z,60.10
2019-06-01T22:23:11.471Z,60.40
2019-06-01T22:25:39.245Z,60.50
2019-06-01T22:28:08.430Z,60.60
2019-06-01T22:30:37.568Z,60.50
2019-06-01T22:33:06.688Z,60.80
2019-06-01T22:35:35.808Z,60.80
2019-06-01T22:38:04.908Z,60.70
2019-06-01T22:40:34.043Z,60.70
2019-06-01T22:43:03.163Z,60.90
2019-06-01T22:45:33.450Z,60.70
2019-06-01T22:48:02.760Z,61.10
2019-06-01T22:50:33.023Z,61.00
2019-06-01T22:53:02.370Z,61.00
2019-06-01T22:55:32.567Z,61.00
2019-06-01T22:58:01.761Z,61.00
2019-06-01T23:00:32.000Z,61.40
2019-06-01T23:03:01.308Z,61.40
2019-06-01T23:05:31.249Z,61.50
2019-06-01T23:08:00.554Z,61.60
2019-06-01T23:10:34.882Z,62.40
2019-06-01T23:13:00.695Z,61.80
2019-06-01T23:15:29.955Z,62.00
2019-06-01T23:17:59.181Z,61.90
2019-06-01T23:20:28.264Z,61.90
2019-06-01T23:22:57.371Z,62.10
2019-06-01T23:25:26.500Z,62.20
2019-06-01T23:27:55.940Z,62.10
2019-06-01T23:30:26.296Z,62.00
2019-06-01T23:32:55.550Z,61.80
2019-06-01T23:35:24.674Z,62.00
2019-06-01T23:37:53.864Z,62.10
2019-06-01T23:40:22.973Z,62.20
2019-06-01T23:42:52.107Z,62.20
2019-06-01T23:45:22.375Z,62.20
2019-06-01T23:47:51.767Z,62.30
2019-06-01T23:50:20.889Z,62.20
2019-06-01T23:52:50.032Z,62.70
2019-06-01T23:55:19.234Z,62.50
2019-06-01T23:57:48.488Z,62.50
